sensor_id;sensor_type;location;lat;lon;timestamp;pressure;altitude;pressure_sealevel;temperature;humidity
75629;BME280;64213;46.452;16.994;2023-06-10T00:00:55;99431.84;;;16.96;98.93
75629;BME280;64213;46.452;16.994;2023-06-10T00:03:58;99433.47;;;16.89;99.26
75629;BME280;64213;46.452;16.994;2023-06-10T00:07:00;99428.44;;;16.86;99.49
75629;BME280;64213;46.452;16.994;2023-06-10T00:10:03;99428.56;;;16.84;99.57
75629;BME280;64213;46.452;16.994;2023-06-10T00:13:07;99430.09;;;16.87;99.62
75629;BME280;64213;46.452;16.994;2023-06-10T00:16:13;99428.87;;;16.81;99.11
75629;BME280;64213;46.452;16.994;2023-06-10T00:19:15;99426.81;;;16.75;99.44
75629;BME280;64213;46.452;16.994;2023-06-10T00:22:17;99429.19;;;16.78;99.89
75629;BME280;64213;46.452;16.994;2023-06-10T00:25:19;99428.34;;;16.78;100.00
75629;BME280;64213;46.452;16.994;2023-06-10T00:28:22;99429.87;;;16.80;99.47
75629;BME280;64213;46.452;16.994;2023-06-10T00:31:24;99429.03;;;16.80;99.66
75629;BME280;64213;46.452;16.994;2023-06-10T00:34:28;99432.41;;;16.82;99.93
75629;BME280;64213;46.452;16.994;2023-06-10T00:37:30;99431.25;;;16.84;99.84
75629;BME280;64213;46.452;16.994;2023-06-10T00:40:38;99436.28;;;16.87;99.39
75629;BME280;64213;46.452;16.994;2023-06-10T00:43:40;99433.59;;;16.87;99.54
75629;BME280;64213;46.452;16.994;2023-06-10T00:46:43;99426.41;;;16.88;99.60
75629;BME280;64213;46.452;16.994;2023-06-10T00:49:47;99437.59;;;16.83;100.00
75629;BME280;64213;46.452;16.994;2023-06-10T00:52:49;99436.34;;;16.78;99.80
75629;BME280;64213;46.452;16.994;2023-06-10T00:55:56;99421.16;;;16.78;100.00
75629;BME280;64213;46.452;16.994;2023-06-10T00:58:59;99426.09;;;16.73;100.00
75629;BME280;64213;46.452;16.994;2023-06-10T01:02:01;99424.13;;;16.75;100.00
75629;BME280;64213;46.452;16.994;2023-06-10T01:05:04;99429.63;;;16.73;100.00
75629;BME280;64213;46.452;16.994;2023-06-10T01:08:28;99430.44;;;16.74;100.00
75629;BME280;64213;46.452;16.994;2023-06-10T01:11:38;99418.72;;;16.67;100.00
75629;BME280;64213;46.452;16.994;2023-06-10T01:14:43;99419.31;;;16.61;100.00
75629;BME280;64213;46.452;16.994;2023-06-10T01:17:57;99420.97;;;16.62;100.00
75629;BME280;64213;46.452;16.994;2023-06-10T01:21:00;99420.31;;;16.60;100.00
75629;BME280;64213;46.452;16.994;2023-06-10T01:24:02;99415.28;;;16.57;100.00
75629;BME280;64213;46.452;16.994;2023-06-10T01:27:12;99412.06;;;16.53;100.00
75629;BME280;64213;46.452;16.994;2023-06-10T01:30:18;99409.19;;;16.46;100.00
75629;BME280;64213;46.452;16.994;2023-06-10T01:33:31;99404.75;;;16.37;100.00
75629;BME280;64213;46.452;16.994;2023-06-10T01:36:36;99409.69;;;16.32;100.00
75629;BME280;64213;46.452;16.994;2023-06-10T01:39:40;99407.78;;;16.24;100.00
75629;BME280;64213;46.452;16.994;2023-06-10T01:42:43;99423.91;;;16.23;100.00
75629;BME280;64213;46.452;16.994;2023-06-10T01:45:45;99414.84;;;16.16;100.00
75629;BME280;64213;46.452;16.994;2023-06-10T01:48:47;99412.47;;;16.13;100.00
75629;BME280;64213;46.452;16.994;2023-06-10T01:51:50;99414.34;;;16.02;100.00
75629;BME280;64213;46.452;16.994;2023-06-10T01:54:52;99419.19;;;15.89;100.00
75629;BME280;64213;46.452;16.994;2023-06-10T01:57:54;99420.66;;;15.74;100.00
75629;BME280;64213;46.452;16.994;2023-06-10T02:00:57;99421.66;;;15.53;100.00
75629;BME280;64213;46.452;16.994;2023-06-10T02:03:59;99430.97;;;15.40;100.00
75629;BME280;64213;46.452;16.994;2023-06-10T02:07:01;99428.87;;;15.33;100.00
75629;BME280;64213;46.452;16.994;2023-06-10T02:10:06;99423.69;;;15.42;100.00
75629;BME280;64213;46.452;16.994;2023-06-10T02:13:09;99422.53;;;15.44;100.00
75629;BME280;64213;46.452;16.994;2023-06-10T02:16:11;99424.63;;;15.50;100.00
75629;BME280;64213;46.452;16.994;2023-06-10T02:19:14;99427.44;;;15.49;100.00
75629;BME280;64213;46.452;16.994;2023-06-10T02:22:17;99426.31;;;15.51;100.00
75629;BME280;64213;46.452;16.994;2023-06-10T02:25:19;99425.62;;;15.49;100.00
75629;BME280;64213;46.452;16.994;2023-06-10T02:28:21;99420.84;;;15.53;100.00
75629;BME280;64213;46.452;16.994;2023-06-10T02:31:24;99420.41;;;15.57;100.00
75629;BME280;64213;46.452;16.994;2023-06-10T02:34:27;99417.59;;;15.59;100.00
75629;BME280;64213;46.452;16.994;2023-06-10T02:37:29;99421.94;;;15.60;100.00
75629;BME280;64213;46.452;16.994;2023-06-10T02:40:32;99411.69;;;15.65;100.00
75629;BME280;64213;46.452;16.994;2023-06-10T02:43:34;99417.00;;;15.65;100.00
75629;BME280;64213;46.452;16.994;2023-06-10T02:46:36;99414.50;;;15.64;100.00
75629;BME280;64213;46.452;16.994;2023-06-10T02:49:38;99410.44;;;15.59;100.00
75629;BME280;64213;46.452;16.994;2023-06-10T02:52:42;99418.28;;;15.61;100.00
75629;BME280;64213;46.452;16.994;2023-06-10T02:55:44;99410.12;;;15.63;100.00
75629;BME280;64213;46.452;16.994;2023-06-10T02:58:46;99417.59;;;15.59;100.00
75629;BME280;64213;46.452;16.994;2023-06-10T03:01:50;99418.88;;;15.55;100.00
75629;BME280;64213;46.452;16.994;2023-06-10T03:04:52;99424.06;;;15.56;100.00
75629;BME280;64213;46.452;16.994;2023-06-10T03:07:55;99426.88;;;15.55;100.00
75629;BME280;64213;46.452;16.994;2023-06-10T03:10:57;99435.41;;;15.58;100.00
75629;BME280;64213;46.452;16.994;2023-06-10T03:13:59;99447.06;;;15.57;100.00
75629;BME280;64213;46.452;16.994;2023-06-10T03:17:02;99449.31;;;15.52;100.00
75629;BME280;64213;46.452;16.994;2023-06-10T03:20:05;99452.97;;;15.51;100.00
75629;BME280;64213;46.452;16.994;2023-06-10T03:23:09;99452.81;;;15.53;100.00
75629;BME280;64213;46.452;16.994;2023-06-10T03:26:12;99458.31;;;15.51;100.00
75629;BME280;64213;46.452;16.994;2023-06-10T03:29:17;99450.19;;;15.43;100.00
75629;BME280;64213;46.452;16.994;2023-06-10T03:32:19;99454.94;;;15.49;100.00
75629;BME280;64213;46.452;16.994;2023-06-10T03:35:21;99466.72;;;15.47;100.00
75629;BME280;64213;46.452;16.994;2023-06-10T03:38:24;99467.56;;;15.47;100.00
75629;BME280;64213;46.452;16.994;2023-06-10T03:41:26;99465.88;;;15.46;100.00
75629;BME280;64213;46.452;16.994;2023-06-10T03:44:28;99463.94;;;15.48;100.00
75629;BME280;64213;46.452;16.994;2023-06-10T03:47:34;99467.84;;;15.44;100.00
75629;BME280;64213;46.452;16.994;2023-06-10T03:50:37;99471.19;;;15.56;100.00
75629;BME280;64213;46.452;16.994;2023-06-10T03:53:40;99470.34;;;15.65;100.00
75629;BME280;64213;46.452;16.994;2023-06-10T03:56:42;99476.66;;;15.64;100.00
75629;BME280;64213;46.452;16.994;2023-06-10T03:59:44;99486.34;;;15.75;100.00
75629;BME280;64213;46.452;16.994;2023-06-10T04:02:47;99478.22;;;15.76;100.00
75629;BME280;64213;46.452;16.994;2023-06-10T04:05:51;99480.13;;;15.84;100.00
75629;BME280;64213;46.452;16.994;2023-06-10T04:08:54;99480.84;;;15.86;100.00
75629;BME280;64213;46.452;16.994;2023-06-10T04:11:57;99475.59;;;15.94;100.00
75629;BME280;64213;46.452;16.994;2023-06-10T04:15:00;99477.13;;;15.97;99.82
75629;BME280;64213;46.452;16.994;2023-06-10T04:18:02;99477.56;;;16.02;99.77
75629;BME280;64213;46.452;16.994;2023-06-10T04:21:05;99479.22;;;16.03;99.31
75629;BME280;64213;46.452;16.994;2023-06-10T04:24:07;99487.59;;;16.18;99.05
75629;BME280;64213;46.452;16.994;2023-06-10T04:27:09;99492.66;;;16.11;99.12
75629;BME280;64213;46.452;16.994;2023-06-10T04:30:12;99489.09;;;16.20;98.60
75629;BME280;64213;46.452;16.994;2023-06-10T04:33:15;99479.06;;;16.32;97.98
75629;BME280;64213;46.452;16.994;2023-06-10T04:36:18;99491.44;;;16.33;97.83
75629;BME280;64213;46.452;16.994;2023-06-10T04:39:20;99496.16;;;16.39;97.44
75629;BME280;64213;46.452;16.994;2023-06-10T04:42:22;99488.56;;;16.44;96.98
75629;BME280;64213;46.452;16.994;2023-06-10T04:45:24;99495.16;;;16.50;96.88
75629;BME280;64213;46.452;16.994;2023-06-10T04:48:27;99482.81;;;16.67;96.21
75629;BME280;64213;46.452;16.994;2023-06-10T04:51:29;99487.28;;;16.76;95.78
75629;BME280;64213;46.452;16.994;2023-06-10T04:54:31;99488.38;;;16.73;95.87
75629;BME280;64213;46.452;16.994;2023-06-10T04:57:34;99495.94;;;16.78;95.65
75629;BME280;64213;46.452;16.994;2023-06-10T05:00:36;99492.53;;;16.86;95.42
75629;BME280;64213;46.452;16.994;2023-06-10T05:03:38;99492.06;;;16.90;95.21
75629;BME280;64213;46.452;16.994;2023-06-10T05:06:41;99487.66;;;16.99;94.88
75629;BME280;64213;46.452;16.994;2023-06-10T05:09:43;99486.50;;;17.02;94.83
75629;BME280;64213;46.452;16.994;2023-06-10T05:12:45;99481.91;;;17.12;94.55
75629;BME280;64213;46.452;16.994;2023-06-10T05:15:47;99481.31;;;17.18;94.35
75629;BME280;64213;46.452;16.994;2023-06-10T05:18:50;99493.06;;;17.25;94.02
75629;BME280;64213;46.452;16.994;2023-06-10T05:21:54;99493.28;;;17.32;93.62
75629;BME280;64213;46.452;16.994;2023-06-10T05:24:56;99494.66;;;17.36;93.44
75629;BME280;64213;46.452;16.994;2023-06-10T05:27:59;99494.00;;;17.42;93.01
75629;BME280;64213;46.452;16.994;2023-06-10T05:31:01;99496.44;;;17.53;92.52
75629;BME280;64213;46.452;16.994;2023-06-10T05:34:03;99504.59;;;17.70;91.93
75629;BME280;64213;46.452;16.994;2023-06-10T05:37:05;99508.09;;;17.88;91.43
75629;BME280;64213;46.452;16.994;2023-06-10T05:40:08;99504.53;;;18.13;90.50
75629;BME280;64213;46.452;16.994;2023-06-10T05:43:11;99504.47;;;18.40;89.53
75629;BME280;64213;46.452;16.994;2023-06-10T05:46:13;99501.47;;;18.43;88.94
75629;BME280;64213;46.452;16.994;2023-06-10T05:49:15;99495.16;;;18.60;88.49
75629;BME280;64213;46.452;16.994;2023-06-10T05:52:18;99500.75;;;18.75;88.00
75629;BME280;64213;46.452;16.994;2023-06-10T05:55:20;99500.28;;;18.79;87.88
75629;BME280;64213;46.452;16.994;2023-06-10T05:58:24;99503.31;;;18.93;87.35
75629;BME280;64213;46.452;16.994;2023-06-10T06:01:26;99499.97;;;18.99;86.97
75629;BME280;64213;46.452;16.994;2023-06-10T06:08:10;99501.97;;;18.97;86.69
75629;BME280;64213;46.452;16.994;2023-06-10T06:11:12;99501.81;;;19.23;86.00
75629;BME280;64213;46.452;16.994;2023-06-10T06:14:52;99500.00;;;19.32;85.89
75629;BME280;64213;46.452;16.994;2023-06-10T06:17:55;99497.97;;;19.25;85.25
75629;BME280;64213;46.452;16.994;2023-06-10T06:20:57;99497.63;;;19.37;85.13
75629;BME280;64213;46.452;16.994;2023-06-10T06:24:00;99495.78;;;19.45;84.82
75629;BME280;64213;46.452;16.994;2023-06-10T06:27:02;99494.62;;;19.48;84.34
75629;BME280;64213;46.452;16.994;2023-06-10T06:30:05;99497.31;;;19.56;84.00
75629;BME280;64213;46.452;16.994;2023-06-10T06:33:08;99495.59;;;19.55;83.98
75629;BME280;64213;46.452;16.994;2023-06-10T06:36:10;99493.25;;;19.60;83.51
75629;BME280;64213;46.452;16.994;2023-06-10T06:39:12;99490.91;;;19.65;83.23
75629;BME280;64213;46.452;16.994;2023-06-10T06:42:15;99500.44;;;19.92;82.44
75629;BME280;64213;46.452;16.994;2023-06-10T06:45:18;99494.38;;;19.98;82.09
75629;BME280;64213;46.452;16.994;2023-06-10T06:48:20;99505.81;;;19.84;82.55
75629;BME280;64213;46.452;16.994;2023-06-10T06:51:22;99500.97;;;19.80;82.70
75629;BME280;64213;46.452;16.994;2023-06-10T06:54:25;99511.88;;;19.62;83.62
75629;BME280;64213;46.452;16.994;2023-06-10T06:57:27;99505.50;;;19.55;84.08
75629;BME280;64213;46.452;16.994;2023-06-10T07:00:30;99498.44;;;19.78;83.29
75629;BME280;64213;46.452;16.994;2023-06-10T07:03:32;99503.47;;;20.37;81.37
75629;BME280;64213;46.452;16.994;2023-06-10T07:06:34;99497.75;;;20.40;80.95
75629;BME280;64213;46.452;16.994;2023-06-10T07:09:39;99500.19;;;20.58;80.51
75629;BME280;64213;46.452;16.994;2023-06-10T07:12:41;99500.75;;;20.45;80.69
75629;BME280;64213;46.452;16.994;2023-06-10T07:15:43;99501.06;;;20.58;80.53
75629;BME280;64213;46.452;16.994;2023-06-10T07:18:46;99499.31;;;20.97;79.59
75629;BME280;64213;46.452;16.994;2023-06-10T07:21:48;99497.50;;;21.12;79.41
75629;BME280;64213;46.452;16.994;2023-06-10T07:24:50;99493.03;;;20.81;80.13
75629;BME280;64213;46.452;16.994;2023-06-10T07:27:53;99493.13;;;20.65;80.31
75629;BME280;64213;46.452;16.994;2023-06-10T07:30:56;99499.75;;;20.46;80.35
75629;BME280;64213;46.452;16.994;2023-06-10T07:33:58;99497.69;;;20.48;80.27
75629;BME280;64213;46.452;16.994;2023-06-10T07:37:00;99493.91;;;20.74;79.67
75629;BME280;64213;46.452;16.994;2023-06-10T07:40:02;99488.66;;;20.80;79.37
75629;BME280;64213;46.452;16.994;2023-06-10T07:43:05;99492.56;;;20.78;79.65
75629;BME280;64213;46.452;16.994;2023-06-10T07:46:07;99490.50;;;20.80;79.62
75629;BME280;64213;46.452;16.994;2023-06-10T07:49:09;99490.53;;;21.03;78.86
75629;BME280;64213;46.452;16.994;2023-06-10T07:52:12;99491.56;;;21.63;76.87
75629;BME280;64213;46.452;16.994;2023-06-10T07:55:14;99498.66;;;21.41;76.87
75629;BME280;64213;46.452;16.994;2023-06-10T07:58:16;99490.06;;;21.22;77.51
75629;BME280;64213;46.452;16.994;2023-06-10T08:01:18;99494.09;;;21.18;77.70
75629;BME280;64213;46.452;16.994;2023-06-10T08:04:20;99491.25;;;21.43;76.90
75629;BME280;64213;46.452;16.994;2023-06-10T08:07:23;99486.44;;;21.30;77.16
75629;BME280;64213;46.452;16.994;2023-06-10T08:10:25;99488.84;;;21.48;76.50
75629;BME280;64213;46.452;16.994;2023-06-10T08:13:27;99490.03;;;21.83;75.24
75629;BME280;64213;46.452;16.994;2023-06-10T08:16:29;99494.94;;;22.54;72.52
75629;BME280;64213;46.452;16.994;2023-06-10T08:19:32;99489.56;;;23.61;69.08
75629;BME280;64213;46.452;16.994;2023-06-10T08:22:34;99490.66;;;24.29;66.03
75629;BME280;64213;46.452;16.994;2023-06-10T08:25:36;99484.69;;;25.02;64.39
75629;BME280;64213;46.452;16.994;2023-06-10T08:28:38;99479.72;;;25.39;61.22
75629;BME280;64213;46.452;16.994;2023-06-10T08:31:43;99483.22;;;26.06;60.49
75629;BME280;64213;46.452;16.994;2023-06-10T08:34:46;99479.06;;;26.68;59.06
75629;BME280;64213;46.452;16.994;2023-06-10T08:37:48;99487.91;;;26.37;59.68
75629;BME280;64213;46.452;16.994;2023-06-10T08:40:52;99484.09;;;25.33;62.11
75629;BME280;64213;46.452;16.994;2023-06-10T08:44:08;99487.66;;;25.40;59.79
75629;BME280;64213;46.452;16.994;2023-06-10T08:47:16;99488.97;;;26.36;57.69
75629;BME280;64213;46.452;16.994;2023-06-10T08:50:19;99494.22;;;26.24;56.85
75629;BME280;64213;46.452;16.994;2023-06-10T08:53:21;99486.09;;;26.76;55.54
75629;BME280;64213;46.452;16.994;2023-06-10T08:56:24;99489.31;;;25.61;58.17
75629;BME280;64213;46.452;16.994;2023-06-10T08:59:28;99485.16;;;25.45;59.37
75629;BME280;64213;46.452;16.994;2023-06-10T09:02:31;99488.47;;;25.81;56.96
75629;BME280;64213;46.452;16.994;2023-06-10T09:05:37;99482.63;;;25.77;56.33
75629;BME280;64213;46.452;16.994;2023-06-10T09:08:41;99489.28;;;26.01;55.29
75629;BME280;64213;46.452;16.994;2023-06-10T09:11:44;99488.28;;;25.89;55.88
75629;BME280;64213;46.452;16.994;2023-06-10T09:14:46;99490.31;;;26.72;52.92
75629;BME280;64213;46.452;16.994;2023-06-10T09:17:48;99483.69;;;26.48;51.96
75629;BME280;64213;46.452;16.994;2023-06-10T09:20:50;99481.63;;;27.26;50.55
75629;BME280;64213;46.452;16.994;2023-06-10T09:23:53;99477.63;;;26.59;52.69
75629;BME280;64213;46.452;16.994;2023-06-10T09:27:04;99474.25;;;27.58;50.68
75629;BME280;64213;46.452;16.994;2023-06-10T09:30:07;99481.22;;;28.83;48.37
75629;BME280;64213;46.452;16.994;2023-06-10T09:33:12;99470.56;;;29.12;46.07
75629;BME280;64213;46.452;16.994;2023-06-10T09:36:24;99474.16;;;28.94;46.16
75629;BME280;64213;46.452;16.994;2023-06-10T09:39:26;99469.78;;;28.63;46.83
75629;BME280;64213;46.452;16.994;2023-06-10T09:42:32;99470.72;;;28.57;45.81
75629;BME280;64213;46.452;16.994;2023-06-10T09:45:34;99467.37;;;29.15;44.25
75629;BME280;64213;46.452;16.994;2023-06-10T09:48:41;99470.53;;;27.53;46.45
75629;BME280;64213;46.452;16.994;2023-06-10T09:51:54;99457.91;;;28.39;46.23
75629;BME280;64213;46.452;16.994;2023-06-10T09:55:01;99461.56;;;28.14;47.70
75629;BME280;64213;46.452;16.994;2023-06-10T09:58:04;99456.06;;;28.21;45.61
75629;BME280;64213;46.452;16.994;2023-06-10T10:01:12;99451.78;;;29.93;43.11
75629;BME280;64213;46.452;16.994;2023-06-10T10:04:25;99453.59;;;29.87;42.99
75629;BME280;64213;46.452;16.994;2023-06-10T10:07:27;99460.44;;;29.42;45.49
75629;BME280;64213;46.452;16.994;2023-06-10T10:10:29;99459.22;;;28.85;46.45
75629;BME280;64213;46.452;16.994;2023-06-10T10:13:34;99461.66;;;27.89;48.74
75629;BME280;64213;46.452;16.994;2023-06-10T10:16:37;99449.19;;;28.37;47.60
75629;BME280;64213;46.452;16.994;2023-06-10T10:19:43;99458.34;;;28.05;47.39
75629;BME280;64213;46.452;16.994;2023-06-10T10:22:49;99453.47;;;27.21;49.01
75629;BME280;64213;46.452;16.994;2023-06-10T10:25:57;99447.28;;;27.07;50.18
75629;BME280;64213;46.452;16.994;2023-06-10T10:29:10;99450.06;;;26.10;50.75
75629;BME280;64213;46.452;16.994;2023-06-10T10:32:16;99455.84;;;27.35;48.96
75629;BME280;64213;46.452;16.994;2023-06-10T10:35:21;99455.44;;;28.56;46.52
75629;BME280;64213;46.452;16.994;2023-06-10T10:38:25;99448.25;;;28.91;45.02
75629;BME280;64213;46.452;16.994;2023-06-10T10:41:28;99459.44;;;28.83;45.21
75629;BME280;64213;46.452;16.994;2023-06-10T10:44:31;99443.75;;;28.37;47.55
75629;BME280;64213;46.452;16.994;2023-06-10T10:47:34;99438.59;;;27.48;49.29
75629;BME280;64213;46.452;16.994;2023-06-10T10:50:39;99443.69;;;27.13;48.29
75629;BME280;64213;46.452;16.994;2023-06-10T10:53:42;99434.81;;;26.67;49.84
75629;BME280;64213;46.452;16.994;2023-06-10T11:00:24;99432.25;;;26.73;50.74
75629;BME280;64213;46.452;16.994;2023-06-10T11:03:29;99424.91;;;26.35;52.65
75629;BME280;64213;46.452;16.994;2023-06-10T11:06:35;99420.81;;;26.19;52.51
75629;BME280;64213;46.452;16.994;2023-06-10T11:09:37;99419.38;;;27.25;50.11
75629;BME280;64213;46.452;16.994;2023-06-10T11:15:49;99416.81;;;29.31;45.04
75629;BME280;64213;46.452;16.994;2023-06-10T11:18:56;99409.94;;;29.05;45.42
75629;BME280;64213;46.452;16.994;2023-06-10T11:22:00;99404.72;;;29.38;44.13
75629;BME280;64213;46.452;16.994;2023-06-10T11:25:02;99407.13;;;28.93;45.15
75629;BME280;64213;46.452;16.994;2023-06-10T11:28:17;99406.75;;;29.08;45.02
75629;BME280;64213;46.452;16.994;2023-06-10T11:31:28;99402.94;;;30.03;43.21
75629;BME280;64213;46.452;16.994;2023-06-10T11:34:31;99400.50;;;30.18;42.78
75629;BME280;64213;46.452;16.994;2023-06-10T11:37:33;99394.31;;;29.12;44.44
75629;BME280;64213;46.452;16.994;2023-06-10T11:40:36;99387.69;;;29.43;43.90
75629;BME280;64213;46.452;16.994;2023-06-10T11:43:45;99383.31;;;29.65;43.22
75629;BME280;64213;46.452;16.994;2023-06-10T11:46:48;99376.91;;;29.36;44.59
75629;BME280;64213;46.452;16.994;2023-06-10T11:49:58;99382.69;;;30.27;42.83
75629;BME280;64213;46.452;16.994;2023-06-10T11:53:01;99379.84;;;29.82;43.52
75629;BME280;64213;46.452;16.994;2023-06-10T11:56:04;99381.50;;;30.35;41.95
75629;BME280;64213;46.452;16.994;2023-06-10T11:59:06;99380.03;;;31.23;40.87
75629;BME280;64213;46.452;16.994;2023-06-10T12:02:17;99381.00;;;30.67;41.59
75629;BME280;64213;46.452;16.994;2023-06-10T12:05:21;99371.78;;;30.56;41.15
75629;BME280;64213;46.452;16.994;2023-06-10T12:08:24;99380.75;;;29.99;41.97
75629;BME280;64213;46.452;16.994;2023-06-10T12:11:26;99361.50;;;29.18;43.10
75629;BME280;64213;46.452;16.994;2023-06-10T12:14:58;99371.50;;;30.00;42.42
75629;BME280;64213;46.452;16.994;2023-06-10T12:18:02;99368.59;;;29.66;43.18
75629;BME280;64213;46.452;16.994;2023-06-10T12:21:15;99362.06;;;29.32;42.45
75629;BME280;64213;46.452;16.994;2023-06-10T12:24:18;99365.28;;;29.06;42.02
75629;BME280;64213;46.452;16.994;2023-06-10T12:27:21;99359.34;;;29.09;42.61
75629;BME280;64213;46.452;16.994;2023-06-10T12:30:25;99356.53;;;29.62;41.98
75629;BME280;64213;46.452;16.994;2023-06-10T12:33:28;99359.13;;;30.95;39.32
75629;BME280;64213;46.452;16.994;2023-06-10T12:36:30;99352.78;;;30.32;39.63
75629;BME280;64213;46.452;16.994;2023-06-10T12:39:34;99351.06;;;29.51;40.15
75629;BME280;64213;46.452;16.994;2023-06-10T12:42:37;99351.06;;;29.15;41.70
75629;BME280;64213;46.452;16.994;2023-06-10T12:45:41;99349.75;;;29.41;41.44
75629;BME280;64213;46.452;16.994;2023-06-10T12:48:50;99350.22;;;30.26;39.73
75629;BME280;64213;46.452;16.994;2023-06-10T12:51:53;99340.75;;;30.05;40.64
75629;BME280;64213;46.452;16.994;2023-06-10T12:54:56;99339.59;;;29.13;42.10
75629;BME280;64213;46.452;16.994;2023-06-10T12:57:59;99343.28;;;28.65;44.35
75629;BME280;64213;46.452;16.994;2023-06-10T13:01:02;99331.69;;;28.28;43.90
75629;BME280;64213;46.452;16.994;2023-06-10T13:04:05;99331.63;;;27.86;44.58
75629;BME280;64213;46.452;16.994;2023-06-10T13:07:08;99323.72;;;28.26;43.38
75629;BME280;64213;46.452;16.994;2023-06-10T13:10:16;99315.56;;;28.45;42.97
75629;BME280;64213;46.452;16.994;2023-06-10T13:13:18;99315.34;;;28.58;43.66
75629;BME280;64213;46.452;16.994;2023-06-10T13:16:21;99316.25;;;29.06;43.80
75629;BME280;64213;46.452;16.994;2023-06-10T13:19:23;99317.28;;;29.63;41.41
75629;BME280;64213;46.452;16.994;2023-06-10T13:22:26;99315.53;;;29.22;42.61
75629;BME280;64213;46.452;16.994;2023-06-10T13:25:29;99309.16;;;29.05;43.39
75629;BME280;64213;46.452;16.994;2023-06-10T13:28:31;99312.16;;;28.49;44.45
75629;BME280;64213;46.452;16.994;2023-06-10T13:31:36;99309.75;;;27.37;45.38
75629;BME280;64213;46.452;16.994;2023-06-10T13:34:39;99315.19;;;28.11;43.18
75629;BME280;64213;46.452;16.994;2023-06-10T13:37:41;99320.06;;;28.51;42.97
75629;BME280;64213;46.452;16.994;2023-06-10T13:40:43;99309.97;;;28.10;44.95
75629;BME280;64213;46.452;16.994;2023-06-10T13:43:46;99314.25;;;27.07;48.31
75629;BME280;64213;46.452;16.994;2023-06-10T13:46:48;99307.00;;;26.76;48.67
75629;BME280;64213;46.452;16.994;2023-06-10T13:49:51;99307.44;;;27.23;47.81
75629;BME280;64213;46.452;16.994;2023-06-10T13:52:53;99303.19;;;28.31;45.03
75629;BME280;64213;46.452;16.994;2023-06-10T13:55:55;99311.38;;;27.45;45.28
75629;BME280;64213;46.452;16.994;2023-06-10T13:58:57;99300.94;;;28.39;42.62
75629;BME280;64213;46.452;16.994;2023-06-10T14:02:04;99310.53;;;27.45;44.63
75629;BME280;64213;46.452;16.994;2023-06-10T14:05:06;99302.84;;;27.42;45.50
75629;BME280;64213;46.452;16.994;2023-06-10T14:08:10;99304.25;;;27.63;46.54
75629;BME280;64213;46.452;16.994;2023-06-10T14:11:13;99305.09;;;27.01;48.60
75629;BME280;64213;46.452;16.994;2023-06-10T14:14:15;99302.16;;;26.53;49.72
75629;BME280;64213;46.452;16.994;2023-06-10T14:17:18;99297.59;;;26.78;49.79
75629;BME280;64213;46.452;16.994;2023-06-10T14:20:20;99304.72;;;27.96;47.65
75629;BME280;64213;46.452;16.994;2023-06-10T14:23:22;99300.19;;;27.72;47.25
75629;BME280;64213;46.452;16.994;2023-06-10T14:26:26;99294.59;;;27.85;47.47
75629;BME280;64213;46.452;16.994;2023-06-10T14:29:28;99293.34;;;28.18;47.07
75629;BME280;64213;46.452;16.994;2023-06-10T14:32:31;99301.91;;;27.66;47.04
75629;BME280;64213;46.452;16.994;2023-06-10T14:35:33;99293.53;;;27.49;47.78
75629;BME280;64213;46.452;16.994;2023-06-10T14:38:36;99292.03;;;28.50;45.78
75629;BME280;64213;46.452;16.994;2023-06-10T14:41:38;99285.34;;;28.88;44.39
75629;BME280;64213;46.452;16.994;2023-06-10T14:44:40;99289.28;;;29.04;43.62
75629;BME280;64213;46.452;16.994;2023-06-10T14:47:42;99288.28;;;29.22;43.39
75629;BME280;64213;46.452;16.994;2023-06-10T14:50:45;99280.94;;;29.23;43.11
75629;BME280;64213;46.452;16.994;2023-06-10T14:53:52;99283.31;;;29.42;43.19
75629;BME280;64213;46.452;16.994;2023-06-10T14:56:54;99277.31;;;29.05;43.55
75629;BME280;64213;46.452;16.994;2023-06-10T14:59:57;99275.19;;;29.07;43.63
75629;BME280;64213;46.452;16.994;2023-06-10T15:02:59;99275.16;;;29.19;43.47
75629;BME280;64213;46.452;16.994;2023-06-10T15:06:01;99277.37;;;29.34;43.69
75629;BME280;64213;46.452;16.994;2023-06-10T15:09:03;99268.06;;;29.18;43.70
75629;BME280;64213;46.452;16.994;2023-06-10T15:12:06;99269.47;;;28.85;42.96
75629;BME280;64213;46.452;16.994;2023-06-10T15:15:08;99268.66;;;29.20;42.90
75629;BME280;64213;46.452;16.994;2023-06-10T15:18:11;99265.59;;;29.05;43.07
75629;BME280;64213;46.452;16.994;2023-06-10T15:21:13;99261.53;;;28.95;43.52
75629;BME280;64213;46.452;16.994;2023-06-10T15:24:15;99263.41;;;28.60;44.30
75629;BME280;64213;46.452;16.994;2023-06-10T15:27:18;99264.09;;;28.55;44.72
75629;BME280;64213;46.452;16.994;2023-06-10T15:30:20;99260.41;;;28.08;45.95
75629;BME280;64213;46.452;16.994;2023-06-10T15:33:23;99265.03;;;27.77;47.02
75629;BME280;64213;46.452;16.994;2023-06-10T15:36:26;99263.38;;;27.21;47.75
75629;BME280;64213;46.452;16.994;2023-06-10T15:39:28;99268.72;;;27.46;47.25
75629;BME280;64213;46.452;16.994;2023-06-10T15:42:33;99273.88;;;27.35;47.83
75629;BME280;64213;46.452;16.994;2023-06-10T15:45:35;99273.97;;;27.04;48.59
75629;BME280;64213;46.452;16.994;2023-06-10T15:48:37;99273.59;;;26.75;50.17
75629;BME280;64213;46.452;16.994;2023-06-10T15:51:39;99276.63;;;26.60;51.25
75629;BME280;64213;46.452;16.994;2023-06-10T15:54:48;99280.78;;;26.31;52.39
75629;BME280;64213;46.452;16.994;2023-06-10T15:57:51;99279.44;;;26.15;53.38
75629;BME280;64213;46.452;16.994;2023-06-10T16:00:53;99286.25;;;25.93;53.91
75629;BME280;64213;46.452;16.994;2023-06-10T16:03:55;99277.06;;;25.94;53.33
75629;BME280;64213;46.452;16.994;2023-06-10T16:06:57;99280.66;;;25.88;53.44